sensor_id;sensor_type;location;lat;lon;timestamp;P1;durP1;ratioP1;P2;durP2;ratioP2
12970;SDS011;6550;48.650;8.774;2023-06-14T00:02:18;4.80;;;3.73;;
12970;SDS011;6550;48.650;8.774;2023-06-14T00:04:48;6.10;;;3.10;;
12970;SDS011;6550;48.650;8.774;2023-06-14T00:07:17;8.40;;;3.40;;
12970;SDS011;6550;48.650;8.774;2023-06-14T00:09:59;4.97;;;3.50;;
12970;SDS011;6550;48.650;8.774;2023-06-14T00:12:26;7.37;;;3.63;;
12970;SDS011;6550;48.650;8.774;2023-06-14T00:14:52;3.97;;;3.40;;
12970;SDS011;6550;48.650;8.774;2023-06-14T00:17:19;6.03;;;2.90;;
12970;SDS011;6550;48.650;8.774;2023-06-14T00:19:47;4.53;;;3.57;;
12970;SDS011;6550;48.650;8.774;2023-06-14T00:22:13;4.37;;;3.67;;
12970;SDS011;6550;48.650;8.774;2023-06-14T00:24:40;5.22;;;3.35;;
12970;SDS011;6550;48.650;8.774;2023-06-14T00:27:07;3.50;;;3.20;;
12970;SDS011;6550;48.650;8.774;2023-06-14T00:29:37;3.50;;;3.20;;
12970;SDS011;6550;48.650;8.774;2023-06-14T00:32:04;4.83;;;3.50;;
12970;SDS011;6550;48.650;8.774;2023-06-14T00:34:31;3.90;;;3.50;;
12970;SDS011;6550;48.650;8.774;2023-06-14T00:37:00;5.47;;;3.47;;
12970;SDS011;6550;48.650;8.774;2023-06-14T00:39:27;8.27;;;3.33;;
12970;SDS011;6550;48.650;8.774;2023-06-14T00:41:54;8.37;;;3.83;;
12970;SDS011;6550;48.650;8.774;2023-06-14T00:44:21;4.63;;;3.92;;
12970;SDS011;6550;48.650;8.774;2023-06-14T00:46:50;6.50;;;3.40;;
12970;SDS011;6550;48.650;8.774;2023-06-14T00:49:17;4.17;;;3.70;;
12970;SDS011;6550;48.650;8.774;2023-06-14T00:51:45;4.17;;;3.20;;
12970;SDS011;6550;48.650;8.774;2023-06-14T00:54:12;4.00;;;3.53;;
12970;SDS011;6550;48.650;8.774;2023-06-14T00:56:39;4.20;;;3.60;;
12970;SDS011;6550;48.650;8.774;2023-06-14T00:59:08;5.33;;;3.43;;
12970;SDS011;6550;48.650;8.774;2023-06-14T01:01:37;5.32;;;4.03;;
12970;SDS011;6550;48.650;8.774;2023-06-14T01:04:05;5.63;;;3.90;;
12970;SDS011;6550;48.650;8.774;2023-06-14T01:06:38;6.63;;;3.80;;
12970;SDS011;6550;48.650;8.774;2023-06-14T01:09:43;5.33;;;3.73;;
12970;SDS011;6550;48.650;8.774;2023-06-14T01:15:18;5.60;;;4.03;;
12970;SDS011;6550;48.650;8.774;2023-06-14T01:17:48;10.67;;;3.83;;
12970;SDS011;6550;48.650;8.774;2023-06-14T01:20:19;4.17;;;3.77;;
12970;SDS011;6550;48.650;8.774;2023-06-14T01:22:51;4.00;;;3.47;;
12970;SDS011;6550;48.650;8.774;2023-06-14T01:25:19;4.53;;;3.57;;
12970;SDS011;6550;48.650;8.774;2023-06-14T01:27:58;7.27;;;3.90;;
12970;SDS011;6550;48.650;8.774;2023-06-14T01:30:29;4.37;;;3.93;;
12970;SDS011;6550;48.650;8.774;2023-06-14T01:33:00;8.90;;;3.73;;
12970;SDS011;6550;48.650;8.774;2023-06-14T01:35:33;3.97;;;3.30;;
12970;SDS011;6550;48.650;8.774;2023-06-14T01:38:00;4.77;;;3.37;;
12970;SDS011;6550;48.650;8.774;2023-06-14T01:40:31;4.13;;;3.73;;
12970;SDS011;6550;48.650;8.774;2023-06-14T01:43:08;4.27;;;3.87;;
12970;SDS011;6550;48.650;8.774;2023-06-14T01:45:48;4.50;;;3.40;;
12970;SDS011;6550;48.650;8.774;2023-06-14T01:48:16;4.20;;;3.07;;
12970;SDS011;6550;48.650;8.774;2023-06-14T01:50:46;4.10;;;3.70;;
12970;SDS011;6550;48.650;8.774;2023-06-14T01:53:14;6.30;;;3.63;;
12970;SDS011;6550;48.650;8.774;2023-06-14T01:55:42;4.60;;;3.95;;
12970;SDS011;6550;48.650;8.774;2023-06-14T01:58:10;3.90;;;3.60;;
12970;SDS011;6550;48.650;8.774;2023-06-14T02:00:39;5.33;;;3.73;;
12970;SDS011;6550;48.650;8.774;2023-06-14T02:03:06;6.57;;;4.10;;
12970;SDS011;6550;48.650;8.774;2023-06-14T02:05:33;6.77;;;3.73;;
12970;SDS011;6550;48.650;8.774;2023-06-14T02:08:05;6.67;;;3.80;;
12970;SDS011;6550;48.650;8.774;2023-06-14T02:10:34;4.67;;;3.77;;
12970;SDS011;6550;48.650;8.774;2023-06-14T02:13:02;4.90;;;3.97;;
12970;SDS011;6550;48.650;8.774;2023-06-14T02:15:31;4.10;;;3.70;;
12970;SDS011;6550;48.650;8.774;2023-06-14T02:18:04;7.23;;;3.70;;
12970;SDS011;6550;48.650;8.774;2023-06-14T02:20:31;5.13;;;3.97;;
12970;SDS011;6550;48.650;8.774;2023-06-14T02:22:58;4.03;;;3.33;;
12970;SDS011;6550;48.650;8.774;2023-06-14T02:25:25;5.10;;;3.60;;
12970;SDS011;6550;48.650;8.774;2023-06-14T02:27:54;6.80;;;3.63;;
12970;SDS011;6550;48.650;8.774;2023-06-14T02:30:21;6.27;;;3.77;;
12970;SDS011;6550;48.650;8.774;2023-06-14T02:32:48;4.73;;;3.90;;
12970;SDS011;6550;48.650;8.774;2023-06-14T02:35:19;6.50;;;3.80;;
12970;SDS011;6550;48.650;8.774;2023-06-14T02:37:48;3.93;;;3.40;;
12970;SDS011;6550;48.650;8.774;2023-06-14T02:40:15;4.17;;;3.77;;
12970;SDS011;6550;48.650;8.774;2023-06-14T02:42:46;6.30;;;4.03;;
12970;SDS011;6550;48.650;8.774;2023-06-14T02:45:15;4.33;;;3.93;;
12970;SDS011;6550;48.650;8.774;2023-06-14T02:47:43;5.80;;;4.07;;
12970;SDS011;6550;48.650;8.774;2023-06-14T02:50:09;4.57;;;3.90;;
12970;SDS011;6550;48.650;8.774;2023-06-14T02:52:39;4.47;;;3.93;;
12970;SDS011;6550;48.650;8.774;2023-06-14T02:55:08;4.77;;;3.80;;
12970;SDS011;6550;48.650;8.774;2023-06-14T02:57:39;5.77;;;3.50;;
12970;SDS011;6550;48.650;8.774;2023-06-14T03:00:06;3.87;;;3.43;;
12970;SDS011;6550;48.650;8.774;2023-06-14T03:02:40;4.97;;;3.90;;
12970;SDS011;6550;48.650;8.774;2023-06-14T03:05:09;4.07;;;3.30;;
12970;SDS011;6550;48.650;8.774;2023-06-14T03:07:39;9.00;;;3.53;;
12970;SDS011;6550;48.650;8.774;2023-06-14T03:10:14;4.30;;;3.67;;
12970;SDS011;6550;48.650;8.774;2023-06-14T03:12:41;6.40;;;3.87;;
12970;SDS011;6550;48.650;8.774;2023-06-14T03:15:11;4.40;;;4.00;;
12970;SDS011;6550;48.650;8.774;2023-06-14T03:17:39;4.93;;;3.60;;
12970;SDS011;6550;48.650;8.774;2023-06-14T03:20:07;4.27;;;3.70;;
12970;SDS011;6550;48.650;8.774;2023-06-14T03:22:34;9.40;;;3.90;;
12970;SDS011;6550;48.650;8.774;2023-06-14T03:25:01;3.97;;;3.57;;
12970;SDS011;6550;48.650;8.774;2023-06-14T03:27:30;6.67;;;3.93;;
12970;SDS011;6550;48.650;8.774;2023-06-14T03:29:57;7.40;;;4.03;;
12970;SDS011;6550;48.650;8.774;2023-06-14T03:32:24;4.10;;;3.70;;
12970;SDS011;6550;48.650;8.774;2023-06-14T03:34:53;5.97;;;3.83;;
12970;SDS011;6550;48.650;8.774;2023-06-14T03:37:21;3.90;;;3.47;;
12970;SDS011;6550;48.650;8.774;2023-06-14T03:39:53;7.90;;;3.63;;
12970;SDS011;6550;48.650;8.774;2023-06-14T03:42:20;5.47;;;4.20;;
12970;SDS011;6550;48.650;8.774;2023-06-14T03:44:47;8.83;;;4.23;;
12970;SDS011;6550;48.650;8.774;2023-06-14T03:47:16;7.85;;;3.78;;
12970;SDS011;6550;48.650;8.774;2023-06-14T03:49:43;8.77;;;3.90;;
12970;SDS011;6550;48.650;8.774;2023-06-14T03:52:10;5.70;;;4.03;;
12970;SDS011;6550;48.650;8.774;2023-06-14T03:54:39;3.77;;;3.47;;
12970;SDS011;6550;48.650;8.774;2023-06-14T03:57:26;5.40;;;3.77;;
12970;SDS011;6550;48.650;8.774;2023-06-14T03:59:53;3.97;;;3.50;;
12970;SDS011;6550;48.650;8.774;2023-06-14T04:02:22;5.47;;;3.90;;
12970;SDS011;6550;48.650;8.774;2023-06-14T04:04:51;3.73;;;3.43;;
12970;SDS011;6550;48.650;8.774;2023-06-14T04:07:20;4.93;;;4.20;;
12970;SDS011;6550;48.650;8.774;2023-06-14T04:09:48;6.00;;;3.90;;
12970;SDS011;6550;48.650;8.774;2023-06-14T04:12:15;4.00;;;3.60;;
12970;SDS011;6550;48.650;8.774;2023-06-14T04:14:42;4.07;;;3.47;;
12970;SDS011;6550;48.650;8.774;2023-06-14T04:17:11;8.70;;;4.10;;
12970;SDS011;6550;48.650;8.774;2023-06-14T04:19:40;4.00;;;3.47;;
12970;SDS011;6550;48.650;8.774;2023-06-14T04:22:07;4.20;;;3.70;;
12970;SDS011;6550;48.650;8.774;2023-06-14T04:24:37;4.07;;;3.67;;
12970;SDS011;6550;48.650;8.774;2023-06-14T04:27:03;6.15;;;4.10;;
12970;SDS011;6550;48.650;8.774;2023-06-14T04:29:30;4.73;;;3.97;;
12970;SDS011;6550;48.650;8.774;2023-06-14T04:31:57;3.73;;;3.43;;
12970;SDS011;6550;48.650;8.774;2023-06-14T04:34:28;4.60;;;3.70;;
12970;SDS011;6550;48.650;8.774;2023-06-14T04:37:03;6.00;;;4.10;;
12970;SDS011;6550;48.650;8.774;2023-06-14T04:39:30;5.63;;;3.67;;
12970;SDS011;6550;48.650;8.774;2023-06-14T04:41:57;5.47;;;4.40;;
12970;SDS011;6550;48.650;8.774;2023-06-14T04:44:26;5.27;;;4.17;;
12970;SDS011;6550;48.650;8.774;2023-06-14T04:46:57;5.10;;;4.60;;
12970;SDS011;6550;48.650;8.774;2023-06-14T04:49:29;4.93;;;4.27;;
12970;SDS011;6550;48.650;8.774;2023-06-14T04:51:59;7.00;;;4.00;;
12970;SDS011;6550;48.650;8.774;2023-06-14T04:54:28;4.67;;;3.97;;
12970;SDS011;6550;48.650;8.774;2023-06-14T04:57:00;4.87;;;4.07;;
12970;SDS011;6550;48.650;8.774;2023-06-14T04:59:29;4.33;;;3.80;;
12970;SDS011;6550;48.650;8.774;2023-06-14T05:01:59;5.93;;;3.90;;
12970;SDS011;6550;48.650;8.774;2023-06-14T05:04:26;7.47;;;4.10;;
12970;SDS011;6550;48.650;8.774;2023-06-14T05:06:56;8.23;;;4.75;;
12970;SDS011;6550;48.650;8.774;2023-06-14T05:09:23;5.57;;;4.17;;
12970;SDS011;6550;48.650;8.774;2023-06-14T05:11:52;5.07;;;4.13;;
12970;SDS011;6550;48.650;8.774;2023-06-14T05:14:19;4.57;;;4.10;;
12970;SDS011;6550;48.650;8.774;2023-06-14T05:16:46;4.97;;;4.40;;
12970;SDS011;6550;48.650;8.774;2023-06-14T05:19:15;5.80;;;4.23;;
12970;SDS011;6550;48.650;8.774;2023-06-14T05:21:44;7.43;;;4.80;;
12970;SDS011;6550;48.650;8.774;2023-06-14T05:24:11;4.23;;;3.83;;
12970;SDS011;6550;48.650;8.774;2023-06-14T05:26:38;7.20;;;4.80;;
12970;SDS011;6550;48.650;8.774;2023-06-14T05:29:07;5.73;;;4.23;;
12970;SDS011;6550;48.650;8.774;2023-06-14T05:31:37;4.40;;;4.00;;
12970;SDS011;6550;48.650;8.774;2023-06-14T05:34:06;6.00;;;4.50;;
12970;SDS011;6550;48.650;8.774;2023-06-14T05:36:33;4.97;;;3.90;;
12970;SDS011;6550;48.650;8.774;2023-06-14T05:39:00;6.03;;;3.90;;
12970;SDS011;6550;48.650;8.774;2023-06-14T05:41:33;5.73;;;4.27;;
12970;SDS011;6550;48.650;8.774;2023-06-14T05:44:00;4.93;;;3.60;;
12970;SDS011;6550;48.650;8.774;2023-06-14T05:46:31;5.03;;;4.00;;
12970;SDS011;6550;48.650;8.774;2023-06-14T05:49:00;5.50;;;4.00;;
12970;SDS011;6550;48.650;8.774;2023-06-14T05:51:27;4.53;;;4.10;;
12970;SDS011;6550;48.650;8.774;2023-06-14T05:53:54;6.90;;;4.00;;
12970;SDS011;6550;48.650;8.774;2023-06-14T05:56:23;8.80;;;4.13;;
12970;SDS011;6550;48.650;8.774;2023-06-14T05:58:50;8.83;;;4.37;;
12970;SDS011;6550;48.650;8.774;2023-06-14T06:01:17;7.05;;;4.38;;
12970;SDS011;6550;48.650;8.774;2023-06-14T06:03:44;7.57;;;4.33;;
12970;SDS011;6550;48.650;8.774;2023-06-14T06:06:14;15.83;;;4.83;;
12970;SDS011;6550;48.650;8.774;2023-06-14T06:08:42;11.20;;;3.87;;
12970;SDS011;6550;48.650;8.774;2023-06-14T06:11:11;9.20;;;4.30;;
12970;SDS011;6550;48.650;8.774;2023-06-14T06:13:40;6.97;;;4.20;;
12970;SDS011;6550;48.650;8.774;2023-06-14T06:16:07;7.13;;;4.30;;
12970;SDS011;6550;48.650;8.774;2023-06-14T06:18:36;8.10;;;3.80;;
12970;SDS011;6550;48.650;8.774;2023-06-14T06:21:04;11.03;;;3.53;;
12970;SDS011;6550;48.650;8.774;2023-06-14T06:23:32;4.83;;;4.07;;
12970;SDS011;6550;48.650;8.774;2023-06-14T06:25:58;5.70;;;4.40;;
12970;SDS011;6550;48.650;8.774;2023-06-14T06:28:25;7.47;;;4.10;;
12970;SDS011;6550;48.650;8.774;2023-06-14T06:30:52;5.73;;;4.03;;
12970;SDS011;6550;48.650;8.774;2023-06-14T06:33:20;4.97;;;3.87;;
12970;SDS011;6550;48.650;8.774;2023-06-14T06:35:46;4.80;;;3.88;;
12970;SDS011;6550;48.650;8.774;2023-06-14T06:38:13;5.03;;;3.80;;
12970;SDS011;6550;48.650;8.774;2023-06-14T06:40:44;4.10;;;3.70;;
12970;SDS011;6550;48.650;8.774;2023-06-14T06:43:11;5.57;;;4.20;;
12970;SDS011;6550;48.650;8.774;2023-06-14T06:45:43;6.97;;;4.13;;
12970;SDS011;6550;48.650;8.774;2023-06-14T06:48:12;8.87;;;4.23;;
12970;SDS011;6550;48.650;8.774;2023-06-14T06:50:39;5.40;;;4.20;;
12970;SDS011;6550;48.650;8.774;2023-06-14T06:53:06;4.43;;;4.03;;
12970;SDS011;6550;48.650;8.774;2023-06-14T06:55:36;4.20;;;3.90;;
12970;SDS011;6550;48.650;8.774;2023-06-14T06:58:03;4.87;;;3.80;;
12970;SDS011;6550;48.650;8.774;2023-06-14T07:00:31;6.93;;;3.57;;
12970;SDS011;6550;48.650;8.774;2023-06-14T07:02:58;4.83;;;3.37;;
12970;SDS011;6550;48.650;8.774;2023-06-14T07:05:28;3.87;;;2.97;;
12970;SDS011;6550;48.650;8.774;2023-06-14T07:07:55;5.60;;;3.50;;
12970;SDS011;6550;48.650;8.774;2023-06-14T07:10:26;3.37;;;3.07;;
12970;SDS011;6550;48.650;8.774;2023-06-14T07:12:52;3.53;;;3.07;;
12970;SDS011;6550;48.650;8.774;2023-06-14T07:15:21;3.70;;;3.33;;
12970;SDS011;6550;48.650;8.774;2023-06-14T07:17:48;3.60;;;3.30;;
12970;SDS011;6550;48.650;8.774;2023-06-14T07:20:17;5.90;;;3.03;;
12970;SDS011;6550;48.650;8.774;2023-06-14T07:22:44;5.00;;;3.10;;
12970;SDS011;6550;48.650;8.774;2023-06-14T07:25:13;5.33;;;3.17;;
12970;SDS011;6550;48.650;8.774;2023-06-14T07:27:42;3.07;;;2.77;;
12970;SDS011;6550;48.650;8.774;2023-06-14T07:30:09;7.93;;;2.90;;
12970;SDS011;6550;48.650;8.774;2023-06-14T07:32:37;4.13;;;2.67;;
12970;SDS011;6550;48.650;8.774;2023-06-14T07:35:06;5.07;;;2.90;;
12970;SDS011;6550;48.650;8.774;2023-06-14T07:37:33;7.23;;;3.10;;
12970;SDS011;6550;48.650;8.774;2023-06-14T07:40:03;3.53;;;2.92;;
12970;SDS011;6550;48.650;8.774;2023-06-14T07:42:34;3.03;;;2.73;;
12970;SDS011;6550;48.650;8.774;2023-06-14T07:45:03;7.17;;;3.00;;
12970;SDS011;6550;48.650;8.774;2023-06-14T07:47:31;3.27;;;2.97;;
12970;SDS011;6550;48.650;8.774;2023-06-14T07:49:59;7.63;;;2.93;;
12970;SDS011;6550;48.650;8.774;2023-06-14T07:52:29;3.90;;;2.90;;
12970;SDS011;6550;48.650;8.774;2023-06-14T07:54:56;3.70;;;2.63;;
12970;SDS011;6550;48.650;8.774;2023-06-14T07:57:27;3.53;;;2.50;;
12970;SDS011;6550;48.650;8.774;2023-06-14T07:59:56;5.97;;;3.17;;
12970;SDS011;6550;48.650;8.774;2023-06-14T08:02:26;5.67;;;3.20;;
12970;SDS011;6550;48.650;8.774;2023-06-14T08:04:55;3.27;;;2.97;;
12970;SDS011;6550;48.650;8.774;2023-06-14T08:07:22;4.03;;;2.80;;
12970;SDS011;6550;48.650;8.774;2023-06-14T08:09:53;5.88;;;2.92;;
12970;SDS011;6550;48.650;8.774;2023-06-14T08:12:20;4.37;;;3.13;;
12970;SDS011;6550;48.650;8.774;2023-06-14T08:14:47;4.70;;;3.03;;
12970;SDS011;6550;48.650;8.774;2023-06-14T08:17:37;3.30;;;3.00;;
12970;SDS011;6550;48.650;8.774;2023-06-14T08:20:07;4.87;;;2.87;;
12970;SDS011;6550;48.650;8.774;2023-06-14T08:22:34;3.40;;;2.83;;
12970;SDS011;6550;48.650;8.774;2023-06-14T08:25:02;4.40;;;2.90;;
12970;SDS011;6550;48.650;8.774;2023-06-14T08:27:32;6.00;;;2.80;;
12970;SDS011;6550;48.650;8.774;2023-06-14T08:29:59;4.15;;;3.40;;
12970;SDS011;6550;48.650;8.774;2023-06-14T08:32:26;3.00;;;2.70;;
12970;SDS011;6550;48.650;8.774;2023-06-14T08:34:53;7.27;;;2.93;;
12970;SDS011;6550;48.650;8.774;2023-06-14T08:37:30;5.57;;;4.00;;
12970;SDS011;6550;48.650;8.774;2023-06-14T08:40:01;7.60;;;3.50;;
12970;SDS011;6550;48.650;8.774;2023-06-14T08:42:32;3.37;;;2.80;;
12970;SDS011;6550;48.650;8.774;2023-06-14T08:45:00;4.10;;;2.70;;
12970;SDS011;6550;48.650;8.774;2023-06-14T08:47:32;5.73;;;2.87;;
12970;SDS011;6550;48.650;8.774;2023-06-14T08:50:07;6.73;;;3.17;;
12970;SDS011;6550;48.650;8.774;2023-06-14T08:52:57;5.90;;;3.37;;
12970;SDS011;6550;48.650;8.774;2023-06-14T08:55:30;4.57;;;3.40;;
12970;SDS011;6550;48.650;8.774;2023-06-14T08:58:02;6.03;;;3.70;;
12970;SDS011;6550;48.650;8.774;2023-06-14T09:00:30;6.97;;;3.10;;
12970;SDS011;6550;48.650;8.774;2023-06-14T09:02:57;4.20;;;3.07;;
12970;SDS011;6550;48.650;8.774;2023-06-14T09:05:25;4.27;;;2.73;;
12970;SDS011;6550;48.650;8.774;2023-06-14T09:07:55;6.00;;;3.40;;
12970;SDS011;6550;48.650;8.774;2023-06-14T09:10:31;5.50;;;3.70;;
12970;SDS011;6550;48.650;8.774;2023-06-14T09:13:05;2.93;;;2.70;;
12970;SDS011;6550;48.650;8.774;2023-06-14T09:15:32;6.47;;;3.43;;
12970;SDS011;6550;48.650;8.774;2023-06-14T09:18:03;4.50;;;2.87;;
12970;SDS011;6550;48.650;8.774;2023-06-14T09:20:30;3.60;;;3.30;;
12970;SDS011;6550;48.650;8.774;2023-06-14T09:22:57;3.37;;;3.07;;
12970;SDS011;6550;48.650;8.774;2023-06-14T09:25:27;3.87;;;2.90;;
12970;SDS011;6550;48.650;8.774;2023-06-14T09:28:08;6.77;;;3.47;;
12970;SDS011;6550;48.650;8.774;2023-06-14T09:30:38;5.17;;;3.70;;
12970;SDS011;6550;48.650;8.774;2023-06-14T09:33:10;4.07;;;3.20;;
12970;SDS011;6550;48.650;8.774;2023-06-14T09:35:44;3.63;;;3.00;;
12970;SDS011;6550;48.650;8.774;2023-06-14T09:38:12;4.03;;;3.63;;
12970;SDS011;6550;48.650;8.774;2023-06-14T09:40:41;4.17;;;3.30;;
12970;SDS011;6550;48.650;8.774;2023-06-14T09:43:10;3.92;;;3.13;;
12970;SDS011;6550;48.650;8.774;2023-06-14T09:45:43;7.63;;;3.60;;
12970;SDS011;6550;48.650;8.774;2023-06-14T09:48:14;3.57;;;2.53;;
12970;SDS011;6550;48.650;8.774;2023-06-14T09:50:45;5.57;;;3.00;;
12970;SDS011;6550;48.650;8.774;2023-06-14T09:53:15;3.33;;;3.03;;
12970;SDS011;6550;48.650;8.774;2023-06-14T09:55:43;3.73;;;3.00;;
12970;SDS011;6550;48.650;8.774;2023-06-14T09:58:14;7.80;;;2.67;;
12970;SDS011;6550;48.650;8.774;2023-06-14T10:00:43;3.43;;;3.20;;
12970;SDS011;6550;48.650;8.774;2023-06-14T10:03:12;4.03;;;2.90;;
12970;SDS011;6550;48.650;8.774;2023-06-14T10:05:45;5.57;;;3.23;;
12970;SDS011;6550;48.650;8.774;2023-06-14T10:08:17;9.97;;;3.40;;
12970;SDS011;6550;48.650;8.774;2023-06-14T10:10:50;8.07;;;3.53;;
12970;SDS011;6550;48.650;8.774;2023-06-14T10:13:18;4.10;;;3.43;;
12970;SDS011;6550;48.650;8.774;2023-06-14T10:21:18;4.73;;;3.73;;
12970;SDS011;6550;48.650;8.774;2023-06-14T10:23:53;5.17;;;3.27;;
12970;SDS011;6550;48.650;8.774;2023-06-14T10:26:24;3.20;;;2.87;;
12970;SDS011;6550;48.650;8.774;2023-06-14T10:29:01;5.03;;;3.50;;
12970;SDS011;6550;48.650;8.774;2023-06-14T10:31:41;4.47;;;2.93;;
12970;SDS011;6550;48.650;8.774;2023-06-14T10:34:38;5.13;;;2.80;;
12970;SDS011;6550;48.650;8.774;2023-06-14T10:39:37;3.40;;;2.83;;
12970;SDS011;6550;48.650;8.774;2023-06-14T10:42:08;4.53;;;3.23;;
12970;SDS011;6550;48.650;8.774;2023-06-14T10:44:40;4.30;;;2.70;;
12970;SDS011;6550;48.650;8.774;2023-06-14T10:52:24;3.70;;;2.53;;
12970;SDS011;6550;48.650;8.774;2023-06-14T10:57:42;3.20;;;2.70;;
12970;SDS011;6550;48.650;8.774;2023-06-14T11:00:20;3.70;;;3.20;;
12970;SDS011;6550;48.650;8.774;2023-06-14T11:11:07;5.57;;;2.93;;
12970;SDS011;6550;48.650;8.774;2023-06-14T11:13:41;4.40;;;3.10;;
12970;SDS011;6550;48.650;8.774;2023-06-14T11:16:12;7.10;;;3.23;;
12970;SDS011;6550;48.650;8.774;2023-06-14T11:18:41;5.37;;;3.20;;
12970;SDS011;6550;48.650;8.774;2023-06-14T11:21:15;3.97;;;3.00;;
12970;SDS011;6550;48.650;8.774;2023-06-14T11:23:48;3.33;;;3.03;;
12970;SDS011;6550;48.650;8.774;2023-06-14T11:26:26;3.10;;;2.80;;
12970;SDS011;6550;48.650;8.774;2023-06-14T11:28:56;4.77;;;3.20;;
12970;SDS011;6550;48.650;8.774;2023-06-14T11:31:27;5.60;;;3.10;;
12970;SDS011;6550;48.650;8.774;2023-06-14T11:33:55;3.57;;;2.80;;
12970;SDS011;6550;48.650;8.774;2023-06-14T11:36:27;5.00;;;3.10;;
12970;SDS011;6550;48.650;8.774;2023-06-14T11:39:04;3.90;;;3.10;;
12970;SDS011;6550;48.650;8.774;2023-06-14T11:41:36;9.13;;;3.33;;
12970;SDS011;6550;48.650;8.774;2023-06-14T11:44:17;9.90;;;3.07;;
12970;SDS011;6550;48.650;8.774;2023-06-14T11:46:44;6.77;;;3.43;;
12970;SDS011;6550;48.650;8.774;2023-06-14T11:49:11;6.60;;;3.00;;
12970;SDS011;6550;48.650;8.774;2023-06-14T11:51:43;7.13;;;3.10;;
12970;SDS011;6550;48.650;8.774;2023-06-14T11:54:12;4.33;;;2.97;;
12970;SDS011;6550;48.650;8.774;2023-06-14T11:56:41;6.47;;;3.33;;
12970;SDS011;6550;48.650;8.774;2023-06-14T11:59:08;6.10;;;3.20;;
12970;SDS011;6550;48.650;8.774;2023-06-14T12:01:36;6.03;;;3.30;;
12970;SDS011;6550;48.650;8.774;2023-06-14T12:04:07;3.40;;;3.10;;
12970;SDS011;6550;48.650;8.774;2023-06-14T12:06:39;7.90;;;3.50;;
12970;SDS011;6550;48.650;8.774;2023-06-14T12:09:07;8.10;;;3.47;;
12970;SDS011;6550;48.650;8.774;2023-06-14T12:11:39;5.53;;;3.10;;
12970;SDS011;6550;48.650;8.774;2023-06-14T12:14:09;3.37;;;2.83;;
12970;SDS011;6550;48.650;8.774;2023-06-14T12:16:39;3.83;;;3.00;;
12970;SDS011;6550;48.650;8.774;2023-06-14T12:19:15;3.40;;;3.03;;
12970;SDS011;6550;48.650;8.774;2023-06-14T12:21:46;3.50;;;3.20;;
12970;SDS011;6550;48.650;8.774;2023-06-14T12:24:17;4.03;;;3.17;;
12970;SDS011;6550;48.650;8.774;2023-06-14T12:26:46;4.87;;;3.00;;
12970;SDS011;6550;48.650;8.774;2023-06-14T12:29:13;5.03;;;3.10;;
12970;SDS011;6550;48.650;8.774;2023-06-14T12:31:40;3.43;;;3.13;;
12970;SDS011;6550;48.650;8.774;2023-06-14T12:34:07;5.53;;;3.40;;
12970;SDS011;6550;48.650;8.774;2023-06-14T12:36:34;4.67;;;2.93;;
12970;SDS011;6550;48.650;8.774;2023-06-14T12:39:10;3.90;;;2.77;;
12970;SDS011;6550;48.650;8.774;2023-06-14T12:41:42;3.00;;;2.73;;
12970;SDS011;6550;48.650;8.774;2023-06-14T12:44:11;3.77;;;2.93;;
12970;SDS011;6550;48.650;8.774;2023-06-14T12:46:39;7.00;;;2.90;;
12970;SDS011;6550;48.650;8.774;2023-06-14T12:49:09;5.10;;;2.93;;
12970;SDS011;6550;48.650;8.774;2023-06-14T12:51:37;3.50;;;2.93;;
12970;SDS011;6550;48.650;8.774;2023-06-14T12:54:05;6.87;;;2.93;;
12970;SDS011;6550;48.650;8.774;2023-06-14T12:56:39;4.00;;;2.70;;
12970;SDS011;6550;48.650;8.774;2023-06-14T12:59:07;4.03;;;3.40;;
12970;SDS011;6550;48.650;8.774;2023-06-14T13:01:34;2.73;;;2.40;;
12970;SDS011;6550;48.650;8.774;2023-06-14T13:04:06;6.35;;;2.80;;
12970;SDS011;6550;48.650;8.774;2023-06-14T13:06:36;6.67;;;3.17;;
12970;SDS011;6550;48.650;8.774;2023-06-14T13:09:03;3.07;;;2.77;;
12970;SDS011;6550;48.650;8.774;2023-06-14T13:11:30;7.07;;;3.20;;
12970;SDS011;6550;48.650;8.774;2023-06-14T13:13:57;3.87;;;2.57;;
12970;SDS011;6550;48.650;8.774;2023-06-14T13:16:23;3.23;;;2.90;;
12970;SDS011;6550;48.650;8.774;2023-06-14T13:18:52;3.43;;;2.80;;
12970;SDS011;6550;48.650;8.774;2023-06-14T13:21:22;4.33;;;2.73;;
12970;SDS011;6550;48.650;8.774;2023-06-14T13:23:51;3.37;;;3.00;;
12970;SDS011;6550;48.650;8.774;2023-06-14T13:26:20;3.53;;;2.80;;
12970;SDS011;6550;48.650;8.774;2023-06-14T13:28:47;3.70;;;3.10;;
12970;SDS011;6550;48.650;8.774;2023-06-14T13:31:14;6.83;;;3.17;;
12970;SDS011;6550;48.650;8.774;2023-06-14T13:33:41;4.33;;;2.80;;
12970;SDS011;6550;48.650;8.774;2023-06-14T13:36:08;3.93;;;3.20;;
12970;SDS011;6550;48.650;8.774;2023-06-14T13:38:37;6.23;;;3.00;;
12970;SDS011;6550;48.650;8.774;2023-06-14T13:41:07;9.50;;;3.00;;
12970;SDS011;6550;48.650;8.774;2023-06-14T13:43:36;3.17;;;2.60;;
12970;SDS011;6550;48.650;8.774;2023-06-14T13:46:03;7.93;;;2.90;;
12970;SDS011;6550;48.650;8.774;2023-06-14T13:48:30;6.10;;;3.00;;
12970;SDS011;6550;48.650;8.774;2023-06-14T13:50:59;5.80;;;2.97;;
12970;SDS011;6550;48.650;8.774;2023-06-14T13:53:27;10.73;;;2.97;;
12970;SDS011;6550;48.650;8.774;2023-06-14T13:55:53;5.53;;;3.03;;
12970;SDS011;6550;48.650;8.774;2023-06-14T13:58:23;5.43;;;2.80;;
12970;SDS011;6550;48.650;8.774;2023-06-14T14:00:52;5.57;;;2.73;;
12970;SDS011;6550;48.650;8.774;2023-06-14T14:03:19;3.53;;;3.07;;
12970;SDS011;6550;48.650;8.774;2023-06-14T14:05:48;6.83;;;2.97;;
12970;SDS011;6550;48.650;8.774;2023-06-14T14:08:14;6.32;;;3.22;;
12970;SDS011;6550;48.650;8.774;2023-06-14T14:10:41;6.33;;;3.17;;
12970;SDS011;6550;48.650;8.774;2023-06-14T14:13:08;6.27;;;3.10;;
12970;SDS011;6550;48.650;8.774;2023-06-14T14:15:35;5.47;;;3.00;;
12970;SDS011;6550;48.650;8.774;2023-06-14T14:18:02;6.93;;;2.87;;
12970;SDS011;6550;48.650;8.774;2023-06-14T14:20:30;4.47;;;3.03;;
12970;SDS011;6550;48.650;8.774;2023-06-14T14:23:00;4.97;;;2.93;;
12970;SDS011;6550;48.650;8.774;2023-06-14T14:25:27;4.23;;;2.87;;
12970;SDS011;6550;48.650;8.774;2023-06-14T14:27:56;4.10;;;2.83;;
12970;SDS011;6550;48.650;8.774;2023-06-14T14:30:23;5.37;;;3.00;;
12970;SDS011;6550;48.650;8.774;2023-06-14T14:32:53;3.20;;;2.77;;
12970;SDS011;6550;48.650;8.774;2023-06-14T14:35:20;3.60;;;2.70;;
12970;SDS011;6550;48.650;8.774;2023-06-14T14:37:50;7.67;;;2.97;;
12970;SDS011;6550;48.650;8.774;2023-06-14T14:40:17;3.23;;;2.83;;
12970;SDS011;6550;48.650;8.774;2023-06-14T14:42:44;3.10;;;2.70;;
12970;SDS011;6550;48.650;8.774;2023-06-14T14:45:11;5.97;;;2.90;;
12970;SDS011;6550;48.650;8.774;2023-06-14T14:47:37;4.80;;;2.53;;
12970;SDS011;6550;48.650;8.774;2023-06-14T14:50:05;2.87;;;2.57;;
12970;SDS011;6550;48.650;8.774;2023-06-14T14:52:37;4.77;;;3.10;;
12970;SDS011;6550;48.650;8.774;2023-06-14T14:55:04;3.13;;;2.70;;
12970;SDS011;6550;48.650;8.774;2023-06-14T14:57:31;4.57;;;2.90;;
12970;SDS011;6550;48.650;8.774;2023-06-14T14:59:58;4.20;;;2.47;;
12970;SDS011;6550;48.650;8.774;2023-06-14T15:02:27;6.23;;;2.67;;
12970;SDS011;6550;48.650;8.774;2023-06-14T15:04:59;3.90;;;2.83;;
12970;SDS011;6550;48.650;8.774;2023-06-14T15:07:27;3.47;;;2.43;;
12970;SDS011;6550;48.650;8.774;2023-06-14T15:10:00;3.00;;;2.70;;
12970;SDS011;6550;48.650;8.774;2023-06-14T15:12:27;4.33;;;3.03;;
12970;SDS011;6550;48.650;8.774;2023-06-14T15:14:56;3.50;;;2.73;;
12970;SDS011;6550;48.650;8.774;2023-06-14T15:17:22;4.87;;;2.83;;
12970;SDS011;6550;48.650;8.774;2023-06-14T15:19:51;5.50;;;2.40;;
12970;SDS011;6550;48.650;8.774;2023-06-14T15:22:18;5.53;;;2.60;;
12970;SDS011;6550;48.650;8.774;2023-06-14T15:24:47;4.10;;;2.80;;
12970;SDS011;6550;48.650;8.774;2023-06-14T15:27:15;7.25;;;2.85;;
12970;SDS011;6550;48.650;8.774;2023-06-14T15:29:43;3.47;;;2.90;;
12970;SDS011;6550;48.650;8.774;2023-06-14T15:32:14;4.13;;;3.13;;
12970;SDS011;6550;48.650;8.774;2023-06-14T15:34:43;4.30;;;2.95;;
12970;SDS011;6550;48.650;8.774;2023-06-14T15:37:10;5.13;;;2.70;;
12970;SDS011;6550;48.650;8.774;2023-06-14T15:39:40;7.77;;;3.20;;
12970;SDS011;6550;48.650;8.774;2023-06-14T15:42:09;7.90;;;3.03;;